This is the latest recevied weather packets stored in our database for station/object JH1CWL-13. If no packets are shown the sender has not sent any weather packets the latest 10 day(s).
| Time | Temp. | Humidity | Pressure | Rain* | Wind** | Luminosity | Snow |
|---|---|---|---|---|---|---|---|
| 1777906525 | 16.67° C | 49% | 1006.1 hPa | 0 mm | - | - | - |
| 1777905325 | 16.67° C | 50% | 1005.7 hPa | 0 mm | - | - | - |
| 1777904125 | 17.22° C | 48% | 1005.2 hPa | 0 mm | - | - | - |
| 1777902924 | 17.78° C | 48% | 1005.1 hPa | 0 mm | - | - | - |
| 1777901725 | 18.33° C | 47% | 1004.6 hPa | 0 mm | - | - | - |
| 1777900525 | 18.89° C | 45% | 1003.8 hPa | 0 mm | - | - | - |
| 1777899325 | 18.89° C | 43% | 1003.4 hPa | 0 mm | - | - | - |
| 1777898126 | 19.44° C | 44% | 1002.7 hPa | 0 mm | - | - | - |
| 1777896926 | 19.44° C | 51% | 1002.5 hPa | 0 mm | - | - | - |
| 1777895726 | 19.44° C | 55% | 1001.8 hPa | 0 mm | - | - | - |
| 1777894526 | 19.44° C | 57% | 1001.4 hPa | 0 mm | - | - | - |
| 1777893324 | 19.44° C | 57% | 1000.7 hPa | 0 mm | - | - | - |
| 1777892124 | 19.44° C | 59% | 1000 hPa | 0 mm | - | - | - |
| 1777890926 | 20° C | 57% | 999.8 hPa | 0 mm | - | - | - |
| 1777889725 | 20.56° C | 58% | 999.2 hPa | 0 mm | - | - | - |
| 1777888524 | 20.56° C | 59% | 999.2 hPa | 0 mm | - | - | - |
| 1777887325 | 20.56° C | 61% | 998.6 hPa | 0 mm | - | - | - |
| 1777886124 | 20.56° C | 64% | 997.9 hPa | 0 mm | - | - | - |
| 1777884925 | 21.11° C | 61% | 997.1 hPa | 0 mm | - | - | - |
| 1777883724 | 21.11° C | 60% | 996.6 hPa | 0 mm | - | - | - |
| 1777882525 | 20.56° C | 66% | 996.2 hPa | 0 mm | - | - | - |
| 1777881324 | 20.56° C | 67% | 996.1 hPa | 0 mm | - | - | - |
| 1777880125 | 20.56° C | 70% | 996 hPa | 0 mm | - | - | - |
| 1777878924 | 21.11° C | 71% | 995.7 hPa | 0 mm | - | - | - |
| 1777877726 | 21.11° C | 69% | 995.5 hPa | 0 mm | - | - | - |
* Rain latest hour (hover to see other rain measurements)
** Current wind speed in m/s (hover to see current wind gust speed)